sensor_id;sensor_type;location;lat;lon;timestamp;P1;durP1;ratioP1;P2;durP2;ratioP2
17763;SDS011;22245;52.832;13.816;2023-02-20T00:02:39;6.80;;;2.13;;
17763;SDS011;22245;52.832;13.816;2023-02-20T00:06:03;6.07;;;2.00;;
17763;SDS011;22245;52.832;13.816;2023-02-20T00:09:25;3.00;;;1.83;;
17763;SDS011;22245;52.832;13.816;2023-02-20T00:12:47;7.20;;;2.23;;
17763;SDS011;22245;52.832;13.816;2023-02-20T00:16:09;6.13;;;1.90;;
17763;SDS011;22245;52.832;13.816;2023-02-20T00:19:30;4.17;;;2.07;;
17763;SDS011;22245;52.832;13.816;2023-02-20T00:22:54;3.07;;;2.13;;
17763;SDS011;22245;52.832;13.816;2023-02-20T00:26:15;8.00;;;2.90;;
17763;SDS011;22245;52.832;13.816;2023-02-20T00:29:37;4.93;;;2.13;;
17763;SDS011;22245;52.832;13.816;2023-02-20T00:32:59;5.83;;;2.20;;
17763;SDS011;22245;52.832;13.816;2023-02-20T00:36:21;3.90;;;2.17;;
17763;SDS011;22245;52.832;13.816;2023-02-20T00:39:44;4.80;;;2.37;;
17763;SDS011;22245;52.832;13.816;2023-02-20T00:43:05;5.50;;;2.23;;
17763;SDS011;22245;52.832;13.816;2023-02-20T00:46:27;4.20;;;2.10;;
17763;SDS011;22245;52.832;13.816;2023-02-20T00:49:49;6.37;;;2.37;;
17763;SDS011;22245;52.832;13.816;2023-02-20T00:53:15;5.83;;;2.43;;
17763;SDS011;22245;52.832;13.816;2023-02-20T00:56:38;4.77;;;2.20;;
17763;SDS011;22245;52.832;13.816;2023-02-20T01:00:00;9.73;;;3.83;;
17763;SDS011;22245;52.832;13.816;2023-02-20T01:03:22;5.10;;;2.47;;
17763;SDS011;22245;52.832;13.816;2023-02-20T01:06:45;6.30;;;2.90;;
17763;SDS011;22245;52.832;13.816;2023-02-20T01:10:07;7.37;;;2.77;;
17763;SDS011;22245;52.832;13.816;2023-02-20T01:13:30;6.50;;;2.60;;
17763;SDS011;22245;52.832;13.816;2023-02-20T01:16:52;5.83;;;2.97;;
17763;SDS011;22245;52.832;13.816;2023-02-20T01:20:13;7.07;;;2.77;;
17763;SDS011;22245;52.832;13.816;2023-02-20T01:23:35;5.80;;;2.63;;
17763;SDS011;22245;52.832;13.816;2023-02-20T01:26:57;7.33;;;2.73;;
17763;SDS011;22245;52.832;13.816;2023-02-20T01:30:20;6.40;;;2.63;;
17763;SDS011;22245;52.832;13.816;2023-02-20T01:33:42;6.47;;;3.40;;
17763;SDS011;22245;52.832;13.816;2023-02-20T01:37:03;5.00;;;2.83;;
17763;SDS011;22245;52.832;13.816;2023-02-20T01:40:26;8.13;;;3.47;;
17763;SDS011;22245;52.832;13.816;2023-02-20T01:43:48;8.97;;;3.50;;
17763;SDS011;22245;52.832;13.816;2023-02-20T01:47:11;6.43;;;2.97;;
17763;SDS011;22245;52.832;13.816;2023-02-20T01:50:37;7.50;;;3.23;;
17763;SDS011;22245;52.832;13.816;2023-02-20T01:54:02;5.97;;;3.00;;
17763;SDS011;22245;52.832;13.816;2023-02-20T01:57:27;8.23;;;3.60;;
17763;SDS011;22245;52.832;13.816;2023-02-20T02:00:52;6.20;;;3.27;;
17763;SDS011;22245;52.832;13.816;2023-02-20T02:04:17;6.60;;;3.40;;
17763;SDS011;22245;52.832;13.816;2023-02-20T02:07:41;6.43;;;3.70;;
17763;SDS011;22245;52.832;13.816;2023-02-20T02:11:03;7.07;;;3.67;;
17763;SDS011;22245;52.832;13.816;2023-02-20T02:14:27;7.80;;;3.40;;
17763;SDS011;22245;52.832;13.816;2023-02-20T02:17:51;5.87;;;3.47;;
17763;SDS011;22245;52.832;13.816;2023-02-20T02:21:35;6.53;;;3.33;;
17763;SDS011;22245;52.832;13.816;2023-02-20T02:25:15;8.17;;;3.77;;
17763;SDS011;22245;52.832;13.816;2023-02-20T02:29:04;7.60;;;3.47;;
17763;SDS011;22245;52.832;13.816;2023-02-20T02:36:49;8.43;;;3.80;;
17763;SDS011;22245;52.832;13.816;2023-02-20T02:40:18;5.47;;;3.63;;
17763;SDS011;22245;52.832;13.816;2023-02-20T02:43:43;9.47;;;3.37;;
17763;SDS011;22245;52.832;13.816;2023-02-20T02:47:12;8.20;;;4.03;;
17763;SDS011;22245;52.832;13.816;2023-02-20T02:50:39;7.03;;;3.83;;
17763;SDS011;22245;52.832;13.816;2023-02-20T02:54:07;6.97;;;4.30;;
17763;SDS011;22245;52.832;13.816;2023-02-20T02:57:31;7.37;;;3.97;;
17763;SDS011;22245;52.832;13.816;2023-02-20T03:00:54;9.40;;;4.30;;
17763;SDS011;22245;52.832;13.816;2023-02-20T03:04:18;9.03;;;4.30;;
17763;SDS011;22245;52.832;13.816;2023-02-20T03:07:43;9.03;;;4.73;;
17763;SDS011;22245;52.832;13.816;2023-02-20T03:11:12;10.20;;;4.63;;
17763;SDS011;22245;52.832;13.816;2023-02-20T03:14:39;12.03;;;4.70;;
17763;SDS011;22245;52.832;13.816;2023-02-20T03:18:22;8.03;;;4.90;;
17763;SDS011;22245;52.832;13.816;2023-02-20T03:21:49;9.17;;;5.57;;
17763;SDS011;22245;52.832;13.816;2023-02-20T03:25:14;11.23;;;5.03;;
17763;SDS011;22245;52.832;13.816;2023-02-20T03:28:43;9.03;;;4.80;;
17763;SDS011;22245;52.832;13.816;2023-02-20T03:32:08;10.70;;;5.00;;
17763;SDS011;22245;52.832;13.816;2023-02-20T03:35:50;10.30;;;5.17;;
17763;SDS011;22245;52.832;13.816;2023-02-20T03:39:32;13.23;;;5.40;;
17763;SDS011;22245;52.832;13.816;2023-02-20T03:43:17;9.00;;;4.83;;
17763;SDS011;22245;52.832;13.816;2023-02-20T03:46:49;10.13;;;5.03;;
17763;SDS011;22245;52.832;13.816;2023-02-20T03:50:14;8.93;;;4.70;;
17763;SDS011;22245;52.832;13.816;2023-02-20T03:53:36;9.83;;;5.37;;
17763;SDS011;22245;52.832;13.816;2023-02-20T03:57:00;8.83;;;4.90;;
17763;SDS011;22245;52.832;13.816;2023-02-20T04:00:26;10.90;;;5.97;;
17763;SDS011;22245;52.832;13.816;2023-02-20T04:03:53;10.10;;;5.43;;
17763;SDS011;22245;52.832;13.816;2023-02-20T04:07:19;9.43;;;5.27;;
17763;SDS011;22245;52.832;13.816;2023-02-20T04:10:47;10.43;;;6.10;;
17763;SDS011;22245;52.832;13.816;2023-02-20T04:14:12;12.27;;;5.97;;
17763;SDS011;22245;52.832;13.816;2023-02-20T04:17:38;9.47;;;5.87;;
17763;SDS011;22245;52.832;13.816;2023-02-20T04:21:09;10.87;;;6.20;;
17763;SDS011;22245;52.832;13.816;2023-02-20T04:24:40;10.77;;;5.97;;
17763;SDS011;22245;52.832;13.816;2023-02-20T04:28:07;11.60;;;6.27;;
17763;SDS011;22245;52.832;13.816;2023-02-20T04:31:39;10.53;;;6.20;;
17763;SDS011;22245;52.832;13.816;2023-02-20T04:35:01;10.27;;;5.63;;
17763;SDS011;22245;52.832;13.816;2023-02-20T04:38:24;9.80;;;6.37;;
17763;SDS011;22245;52.832;13.816;2023-02-20T04:41:48;12.80;;;6.10;;
17763;SDS011;22245;52.832;13.816;2023-02-20T04:45:09;11.47;;;5.80;;
17763;SDS011;22245;52.832;13.816;2023-02-20T04:48:31;13.50;;;6.43;;
17763;SDS011;22245;52.832;13.816;2023-02-20T04:51:55;11.80;;;6.17;;
17763;SDS011;22245;52.832;13.816;2023-02-20T04:55:18;11.40;;;6.93;;
17763;SDS011;22245;52.832;13.816;2023-02-20T04:58:45;12.23;;;6.57;;
17763;SDS011;22245;52.832;13.816;2023-02-20T05:02:11;12.23;;;6.80;;
17763;SDS011;22245;52.832;13.816;2023-02-20T05:05:33;12.33;;;6.53;;
17763;SDS011;22245;52.832;13.816;2023-02-20T05:08:55;10.60;;;6.70;;
17763;SDS011;22245;52.832;13.816;2023-02-20T05:12:19;13.10;;;6.33;;
17763;SDS011;22245;52.832;13.816;2023-02-20T05:15:41;12.60;;;6.53;;
17763;SDS011;22245;52.832;13.816;2023-02-20T05:19:03;13.57;;;7.67;;
17763;SDS011;22245;52.832;13.816;2023-02-20T05:22:25;13.63;;;7.13;;
17763;SDS011;22245;52.832;13.816;2023-02-20T05:25:47;13.13;;;6.67;;
17763;SDS011;22245;52.832;13.816;2023-02-20T05:29:10;11.13;;;6.90;;
17763;SDS011;22245;52.832;13.816;2023-02-20T05:32:32;12.67;;;7.13;;
17763;SDS011;22245;52.832;13.816;2023-02-20T05:35:54;13.10;;;7.17;;
17763;SDS011;22245;52.832;13.816;2023-02-20T05:39:15;14.20;;;7.77;;
17763;SDS011;22245;52.832;13.816;2023-02-20T05:42:37;12.77;;;7.00;;
17763;SDS011;22245;52.832;13.816;2023-02-20T05:46:00;13.20;;;7.13;;
17763;SDS011;22245;52.832;13.816;2023-02-20T05:49:22;13.57;;;7.17;;
17763;SDS011;22245;52.832;13.816;2023-02-20T05:52:45;12.33;;;7.07;;
17763;SDS011;22245;52.832;13.816;2023-02-20T05:56:06;12.47;;;6.83;;
17763;SDS011;22245;52.832;13.816;2023-02-20T05:59:28;12.20;;;6.77;;
17763;SDS011;22245;52.832;13.816;2023-02-20T06:02:53;11.23;;;6.53;;
17763;SDS011;22245;52.832;13.816;2023-02-20T06:06:15;10.67;;;6.60;;
17763;SDS011;22245;52.832;13.816;2023-02-20T06:09:40;13.73;;;7.27;;
17763;SDS011;22245;52.832;13.816;2023-02-20T06:13:03;11.07;;;6.93;;
17763;SDS011;22245;52.832;13.816;2023-02-20T06:16:24;12.17;;;6.83;;
17763;SDS011;22245;52.832;13.816;2023-02-20T06:19:49;10.53;;;6.53;;
17763;SDS011;22245;52.832;13.816;2023-02-20T06:23:11;10.93;;;6.83;;
17763;SDS011;22245;52.832;13.816;2023-02-20T06:26:37;11.47;;;7.10;;
17763;SDS011;22245;52.832;13.816;2023-02-20T06:29:59;12.77;;;6.80;;
17763;SDS011;22245;52.832;13.816;2023-02-20T06:33:21;11.10;;;6.47;;
17763;SDS011;22245;52.832;13.816;2023-02-20T06:36:44;10.03;;;6.27;;
17763;SDS011;22245;52.832;13.816;2023-02-20T06:40:06;11.40;;;6.73;;
17763;SDS011;22245;52.832;13.816;2023-02-20T06:43:30;10.57;;;6.50;;
17763;SDS011;22245;52.832;13.816;2023-02-20T06:46:52;13.23;;;6.60;;
17763;SDS011;22245;52.832;13.816;2023-02-20T06:50:14;11.93;;;7.27;;
17763;SDS011;22245;52.832;13.816;2023-02-20T06:53:37;12.43;;;7.37;;
17763;SDS011;22245;52.832;13.816;2023-02-20T06:57:01;11.47;;;6.97;;
17763;SDS011;22245;52.832;13.816;2023-02-20T07:00:22;10.97;;;6.87;;
17763;SDS011;22245;52.832;13.816;2023-02-20T07:03:45;12.57;;;7.40;;
17763;SDS011;22245;52.832;13.816;2023-02-20T07:07:09;15.50;;;7.33;;
17763;SDS011;22245;52.832;13.816;2023-02-20T07:10:33;12.50;;;8.23;;
17763;SDS011;22245;52.832;13.816;2023-02-20T07:13:55;12.70;;;7.97;;
17763;SDS011;22245;52.832;13.816;2023-02-20T07:17:17;15.97;;;7.70;;
17763;SDS011;22245;52.832;13.816;2023-02-20T07:20:42;12.73;;;7.47;;
17763;SDS011;22245;52.832;13.816;2023-02-20T07:24:04;12.90;;;7.70;;
17763;SDS011;22245;52.832;13.816;2023-02-20T07:27:28;12.20;;;7.70;;
17763;SDS011;22245;52.832;13.816;2023-02-20T07:30:50;13.93;;;8.87;;
17763;SDS011;22245;52.832;13.816;2023-02-20T07:34:11;13.13;;;7.77;;
17763;SDS011;22245;52.832;13.816;2023-02-20T07:37:34;12.90;;;8.20;;
17763;SDS011;22245;52.832;13.816;2023-02-20T07:40:55;12.93;;;7.60;;
17763;SDS011;22245;52.832;13.816;2023-02-20T07:44:19;13.50;;;7.60;;
17763;SDS011;22245;52.832;13.816;2023-02-20T07:47:40;11.37;;;7.00;;
17763;SDS011;22245;52.832;13.816;2023-02-20T07:51:02;12.47;;;7.77;;
17763;SDS011;22245;52.832;13.816;2023-02-20T07:54:24;12.67;;;7.60;;
17763;SDS011;22245;52.832;13.816;2023-02-20T07:57:47;12.80;;;7.37;;
17763;SDS011;22245;52.832;13.816;2023-02-20T08:01:11;13.43;;;8.20;;
17763;SDS011;22245;52.832;13.816;2023-02-20T08:04:33;13.10;;;8.07;;
17763;SDS011;22245;52.832;13.816;2023-02-20T08:07:55;13.47;;;8.13;;
17763;SDS011;22245;52.832;13.816;2023-02-20T08:11:17;15.40;;;8.27;;
17763;SDS011;22245;52.832;13.816;2023-02-20T08:14:40;15.53;;;9.50;;
17763;SDS011;22245;52.832;13.816;2023-02-20T08:18:04;16.33;;;9.80;;
17763;SDS011;22245;52.832;13.816;2023-02-20T08:21:42;15.83;;;9.13;;
17763;SDS011;22245;52.832;13.816;2023-02-20T08:25:04;15.03;;;9.60;;
17763;SDS011;22245;52.832;13.816;2023-02-20T08:28:26;16.17;;;9.17;;
17763;SDS011;22245;52.832;13.816;2023-02-20T08:31:48;17.80;;;10.30;;
17763;SDS011;22245;52.832;13.816;2023-02-20T08:35:11;15.40;;;9.93;;
17763;SDS011;22245;52.832;13.816;2023-02-20T08:38:34;18.23;;;9.77;;
17763;SDS011;22245;52.832;13.816;2023-02-20T08:41:58;17.67;;;10.67;;
17763;SDS011;22245;52.832;13.816;2023-02-20T08:45:19;15.40;;;9.83;;
17763;SDS011;22245;52.832;13.816;2023-02-20T08:48:42;15.50;;;9.07;;
17763;SDS011;22245;52.832;13.816;2023-02-20T08:52:06;16.23;;;9.70;;
17763;SDS011;22245;52.832;13.816;2023-02-20T08:55:28;14.50;;;9.23;;
17763;SDS011;22245;52.832;13.816;2023-02-20T08:58:50;14.73;;;9.07;;
17763;SDS011;22245;52.832;13.816;2023-02-20T09:02:14;14.80;;;9.20;;
17763;SDS011;22245;52.832;13.816;2023-02-20T09:05:38;13.33;;;8.70;;
17763;SDS011;22245;52.832;13.816;2023-02-20T09:09:02;16.57;;;9.40;;
17763;SDS011;22245;52.832;13.816;2023-02-20T09:12:24;14.23;;;8.03;;
17763;SDS011;22245;52.832;13.816;2023-02-20T09:15:46;14.60;;;7.73;;
17763;SDS011;22245;52.832;13.816;2023-02-20T09:19:08;13.80;;;7.93;;
17763;SDS011;22245;52.832;13.816;2023-02-20T09:22:29;11.80;;;7.40;;
17763;SDS011;22245;52.832;13.816;2023-02-20T09:25:53;18.43;;;8.60;;
17763;SDS011;22245;52.832;13.816;2023-02-20T09:29:14;12.97;;;7.20;;
17763;SDS011;22245;52.832;13.816;2023-02-20T09:32:36;11.30;;;7.20;;
17763;SDS011;22245;52.832;13.816;2023-02-20T09:35:58;13.03;;;7.13;;
17763;SDS011;22245;52.832;13.816;2023-02-20T09:39:20;12.17;;;7.33;;
17763;SDS011;22245;52.832;13.816;2023-02-20T09:42:45;12.93;;;7.40;;
17763;SDS011;22245;52.832;13.816;2023-02-20T09:46:19;10.57;;;6.00;;
17763;SDS011;22245;52.832;13.816;2023-02-20T09:49:43;10.43;;;6.20;;
17763;SDS011;22245;52.832;13.816;2023-02-20T09:53:08;10.37;;;6.10;;
17763;SDS011;22245;52.832;13.816;2023-02-20T09:56:40;9.83;;;5.83;;
17763;SDS011;22245;52.832;13.816;2023-02-20T10:00:07;7.67;;;5.37;;
17763;SDS011;22245;52.832;13.816;2023-02-20T10:03:34;9.53;;;5.53;;
17763;SDS011;22245;52.832;13.816;2023-02-20T10:07:01;10.10;;;5.60;;
17763;SDS011;22245;52.832;13.816;2023-02-20T10:10:33;8.17;;;5.20;;
17763;SDS011;22245;52.832;13.816;2023-02-20T10:13:59;8.47;;;5.53;;
17763;SDS011;22245;52.832;13.816;2023-02-20T10:17:41;8.97;;;5.13;;
17763;SDS011;22245;52.832;13.816;2023-02-20T10:21:11;9.33;;;5.57;;
17763;SDS011;22245;52.832;13.816;2023-02-20T10:24:41;8.20;;;4.97;;
17763;SDS011;22245;52.832;13.816;2023-02-20T10:28:13;7.70;;;5.13;;
17763;SDS011;22245;52.832;13.816;2023-02-20T10:31:39;8.30;;;5.10;;
17763;SDS011;22245;52.832;13.816;2023-02-20T10:35:07;8.50;;;4.80;;
17763;SDS011;22245;52.832;13.816;2023-02-20T10:38:33;9.30;;;5.30;;
17763;SDS011;22245;52.832;13.816;2023-02-20T10:42:02;8.93;;;5.10;;
17763;SDS011;22245;52.832;13.816;2023-02-20T10:45:32;8.50;;;5.13;;
17763;SDS011;22245;52.832;13.816;2023-02-20T10:49:03;7.43;;;4.70;;
17763;SDS011;22245;52.832;13.816;2023-02-20T10:52:30;8.87;;;4.50;;
17763;SDS011;22245;52.832;13.816;2023-02-20T10:55:58;12.53;;;4.97;;
17763;SDS011;22245;52.832;13.816;2023-02-20T10:59:24;7.67;;;4.70;;
17763;SDS011;22245;52.832;13.816;2023-02-20T11:02:51;8.37;;;4.93;;
17763;SDS011;22245;52.832;13.816;2023-02-20T11:06:19;7.77;;;4.60;;
17763;SDS011;22245;52.832;13.816;2023-02-20T11:09:44;7.53;;;4.37;;
17763;SDS011;22245;52.832;13.816;2023-02-20T11:13:07;11.50;;;4.97;;
17763;SDS011;22245;52.832;13.816;2023-02-20T11:16:37;9.30;;;5.00;;
17763;SDS011;22245;52.832;13.816;2023-02-20T11:20:04;10.83;;;5.70;;
17763;SDS011;22245;52.832;13.816;2023-02-20T11:23:48;8.10;;;4.90;;
17763;SDS011;22245;52.832;13.816;2023-02-20T11:27:10;8.73;;;5.37;;
17763;SDS011;22245;52.832;13.816;2023-02-20T11:30:35;8.33;;;5.37;;
17763;SDS011;22245;52.832;13.816;2023-02-20T11:33:59;9.97;;;5.53;;
17763;SDS011;22245;52.832;13.816;2023-02-20T11:37:22;8.50;;;5.23;;
17763;SDS011;22245;52.832;13.816;2023-02-20T11:40:45;12.53;;;6.20;;
17763;SDS011;22245;52.832;13.816;2023-02-20T11:48:04;10.73;;;5.83;;
17763;SDS011;22245;52.832;13.816;2023-02-20T11:51:32;9.67;;;5.50;;
17763;SDS011;22245;52.832;13.816;2023-02-20T11:55:07;10.93;;;6.27;;
17763;SDS011;22245;52.832;13.816;2023-02-20T11:58:32;10.20;;;6.13;;
17763;SDS011;22245;52.832;13.816;2023-02-20T12:01:59;11.50;;;7.53;;
17763;SDS011;22245;52.832;13.816;2023-02-20T12:05:36;11.33;;;7.73;;
17763;SDS011;22245;52.832;13.816;2023-02-20T12:08:59;13.30;;;8.40;;
17763;SDS011;22245;52.832;13.816;2023-02-20T12:12:22;12.03;;;8.33;;
17763;SDS011;22245;52.832;13.816;2023-02-20T12:15:50;16.30;;;8.70;;
17763;SDS011;22245;52.832;13.816;2023-02-20T12:19:19;13.73;;;9.03;;
17763;SDS011;22245;52.832;13.816;2023-02-20T12:22:48;12.43;;;8.63;;
17763;SDS011;22245;52.832;13.816;2023-02-20T12:26:25;13.30;;;8.33;;
17763;SDS011;22245;52.832;13.816;2023-02-20T12:29:58;16.80;;;8.93;;
17763;SDS011;22245;52.832;13.816;2023-02-20T12:33:37;12.17;;;8.57;;
17763;SDS011;22245;52.832;13.816;2023-02-20T12:37:09;15.20;;;9.47;;
17763;SDS011;22245;52.832;13.816;2023-02-20T12:40:41;16.97;;;9.57;;
17763;SDS011;22245;52.832;13.816;2023-02-20T12:44:15;16.53;;;9.97;;
17763;SDS011;22245;52.832;13.816;2023-02-20T12:47:51;14.97;;;9.90;;
17763;SDS011;22245;52.832;13.816;2023-02-20T12:51:25;17.40;;;10.07;;
17763;SDS011;22245;52.832;13.816;2023-02-20T12:54:58;14.70;;;9.53;;
17763;SDS011;22245;52.832;13.816;2023-02-20T12:58:31;14.67;;;9.53;;
17763;SDS011;22245;52.832;13.816;2023-02-20T13:02:05;15.30;;;9.10;;
17763;SDS011;22245;52.832;13.816;2023-02-20T13:05:36;17.07;;;10.03;;
17763;SDS011;22245;52.832;13.816;2023-02-20T13:09:04;13.03;;;8.67;;
17763;SDS011;22245;52.832;13.816;2023-02-20T13:12:38;17.87;;;8.47;;
17763;SDS011;22245;52.832;13.816;2023-02-20T13:16:02;13.97;;;8.73;;
17763;SDS011;22245;52.832;13.816;2023-02-20T13:19:29;15.33;;;9.27;;
17763;SDS011;22245;52.832;13.816;2023-02-20T13:22:57;15.33;;;9.73;;
17763;SDS011;22245;52.832;13.816;2023-02-20T13:26:45;15.80;;;9.70;;
17763;SDS011;22245;52.832;13.816;2023-02-20T13:30:15;15.47;;;8.93;;
17763;SDS011;22245;52.832;13.816;2023-02-20T13:33:41;14.47;;;8.93;;
17763;SDS011;22245;52.832;13.816;2023-02-20T13:37:04;15.80;;;9.10;;
17763;SDS011;22245;52.832;13.816;2023-02-20T13:41:03;16.97;;;8.67;;
17763;SDS011;22245;52.832;13.816;2023-02-20T13:51:59;14.40;;;8.60;;
17763;SDS011;22245;52.832;13.816;2023-02-20T13:55:21;12.30;;;7.90;;
17763;SDS011;22245;52.832;13.816;2023-02-20T13:58:45;11.97;;;7.40;;
17763;SDS011;22245;52.832;13.816;2023-02-20T14:02:16;12.37;;;7.50;;
17763;SDS011;22245;52.832;13.816;2023-02-20T14:05:40;15.17;;;8.13;;
17763;SDS011;22245;52.832;13.816;2023-02-20T14:09:06;12.17;;;7.63;;
17763;SDS011;22245;52.832;13.816;2023-02-20T14:12:29;12.80;;;7.20;;
17763;SDS011;22245;52.832;13.816;2023-02-20T14:15:52;12.20;;;7.20;;
17763;SDS011;22245;52.832;13.816;2023-02-20T14:19:18;10.70;;;6.77;;
17763;SDS011;22245;52.832;13.816;2023-02-20T14:22:43;10.60;;;6.83;;
17763;SDS011;22245;52.832;13.816;2023-02-20T14:26:18;11.60;;;6.83;;
17763;SDS011;22245;52.832;13.816;2023-02-20T14:29:40;11.77;;;6.53;;
17763;SDS011;22245;52.832;13.816;2023-02-20T14:33:02;12.00;;;7.20;;
17763;SDS011;22245;52.832;13.816;2023-02-20T14:36:43;12.47;;;6.80;;
17763;SDS011;22245;52.832;13.816;2023-02-20T14:40:15;11.37;;;6.77;;
17763;SDS011;22245;52.832;13.816;2023-02-20T14:43:43;9.50;;;6.00;;
17763;SDS011;22245;52.832;13.816;2023-02-20T14:47:17;10.10;;;5.43;;
17763;SDS011;22245;52.832;13.816;2023-02-20T14:50:38;10.50;;;5.83;;
17763;SDS011;22245;52.832;13.816;2023-02-20T14:54:09;9.17;;;5.73;;
17763;SDS011;22245;52.832;13.816;2023-02-20T14:57:37;10.20;;;5.50;;
17763;SDS011;22245;52.832;13.816;2023-02-20T15:00:58;10.57;;;5.70;;
17763;SDS011;22245;52.832;13.816;2023-02-20T15:04:20;11.33;;;5.63;;
17763;SDS011;22245;52.832;13.816;2023-02-20T15:07:43;10.60;;;5.70;;
17763;SDS011;22245;52.832;13.816;2023-02-20T15:11:07;8.00;;;5.17;;
17763;SDS011;22245;52.832;13.816;2023-02-20T15:14:31;8.60;;;4.67;;
17763;SDS011;22245;52.832;13.816;2023-02-20T15:18:04;7.77;;;4.73;;
17763;SDS011;22245;52.832;13.816;2023-02-20T15:21:31;9.97;;;4.87;;
17763;SDS011;22245;52.832;13.816;2023-02-20T15:25:10;6.87;;;4.73;;
17763;SDS011;22245;52.832;13.816;2023-02-20T15:28:35;7.53;;;4.23;;
17763;SDS011;22245;52.832;13.816;2023-02-20T15:31:57;10.53;;;5.20;;
17763;SDS011;22245;52.832;13.816;2023-02-20T15:35:21;8.37;;;4.30;;
17763;SDS011;22245;52.832;13.816;2023-02-20T15:38:46;9.37;;;4.60;;
17763;SDS011;22245;52.832;13.816;2023-02-20T15:42:08;7.57;;;4.17;;
17763;SDS011;22245;52.832;13.816;2023-02-20T15:45:32;7.40;;;4.37;;
17763;SDS011;22245;52.832;13.816;2023-02-20T15:48:56;7.87;;;4.30;;
17763;SDS011;22245;52.832;13.816;2023-02-20T15:52:20;8.77;;;4.30;;
17763;SDS011;22245;52.832;13.816;2023-02-20T15:55:48;6.10;;;4.20;;
17763;SDS011;22245;52.832;13.816;2023-02-20T15:59:11;7.10;;;3.90;;
17763;SDS011;22245;52.832;13.816;2023-02-20T16:02:35;6.43;;;3.87;;
17763;SDS011;22245;52.832;13.816;2023-02-20T16:05:57;6.53;;;3.97;;
17763;SDS011;22245;52.832;13.816;2023-02-20T16:09:19;8.03;;;4.63;;
17763;SDS011;22245;52.832;13.816;2023-02-20T16:12:41;7.23;;;4.67;;
17763;SDS011;22245;52.832;13.816;2023-02-20T16:16:05;7.43;;;4.30;;
17763;SDS011;22245;52.832;13.816;2023-02-20T16:19:44;8.67;;;4.47;;
17763;SDS011;22245;52.832;13.816;2023-02-20T16:23:06;8.63;;;4.90;;
17763;SDS011;22245;52.832;13.816;2023-02-20T16:26:29;7.47;;;4.10;;
17763;SDS011;22245;52.832;13.816;2023-02-20T16:29:55;7.27;;;4.73;;
17763;SDS011;22245;52.832;13.816;2023-02-20T16:33:18;7.07;;;4.60;;
17763;SDS011;22245;52.832;13.816;2023-02-20T16:36:42;7.77;;;4.90;;
17763;SDS011;22245;52.832;13.816;2023-02-20T16:40:04;7.93;;;4.30;;
17763;SDS011;22245;52.832;13.816;2023-02-20T16:43:27;8.47;;;5.00;;
17763;SDS011;22245;52.832;13.816;2023-02-20T16:46:49;7.87;;;4.63;;
17763;SDS011;22245;52.832;13.816;2023-02-20T16:50:12;9.43;;;5.60;;
17763;SDS011;22245;52.832;13.816;2023-02-20T16:53:37;8.30;;;4.53;;
17763;SDS011;22245;52.832;13.816;2023-02-20T16:56:58;11.13;;;5.40;;
17763;SDS011;22245;52.832;13.816;2023-02-20T17:00:20;7.27;;;4.70;;
17763;SDS011;22245;52.832;13.816;2023-02-20T17:03:44;8.23;;;4.70;;
17763;SDS011;22245;52.832;13.816;2023-02-20T17:07:06;6.47;;;4.27;;
17763;SDS011;22245;52.832;13.816;2023-02-20T17:10:30;11.33;;;4.70;;
17763;SDS011;22245;52.832;13.816;2023-02-20T17:13:54;6.77;;;4.43;;
17763;SDS011;22245;52.832;13.816;2023-02-20T17:17:16;8.40;;;5.00;;
17763;SDS011;22245;52.832;13.816;2023-02-20T17:20:38;10.33;;;4.77;;
17763;SDS011;22245;52.832;13.816;2023-02-20T17:24:00;9.10;;;5.17;;
17763;SDS011;22245;52.832;13.816;2023-02-20T17:27:23;8.43;;;4.50;;
17763;SDS011;22245;52.832;13.816;2023-02-20T17:30:45;8.57;;;5.10;;
17763;SDS011;22245;52.832;13.816;2023-02-20T17:34:12;7.93;;;4.63;;
17763;SDS011;22245;52.832;13.816;2023-02-20T17:37:34;8.43;;;5.13;;
17763;SDS011;22245;52.832;13.816;2023-02-20T17:40:56;9.77;;;5.43;;
17763;SDS011;22245;52.832;13.816;2023-02-20T17:44:21;9.43;;;4.90;;
17763;SDS011;22245;52.832;13.816;2023-02-20T17:47:45;7.90;;;4.67;;
17763;SDS011;22245;52.832;13.816;2023-02-20T17:51:06;9.87;;;5.13;;
17763;SDS011;22245;52.832;13.816;2023-02-20T17:54:29;6.77;;;4.30;;
17763;SDS011;22245;52.832;13.816;2023-02-20T17:57:52;6.50;;;4.30;;
17763;SDS011;22245;52.832;13.816;2023-02-20T18:01:15;8.60;;;4.80;;
17763;SDS011;22245;52.832;13.816;2023-02-20T18:04:37;8.17;;;5.17;;
17763;SDS011;22245;52.832;13.816;2023-02-20T18:07:59;8.33;;;5.50;;
17763;SDS011;22245;52.832;13.816;2023-02-20T18:11:20;8.23;;;4.97;;
17763;SDS011;22245;52.832;13.816;2023-02-20T18:14:41;8.80;;;5.17;;
17763;SDS011;22245;52.832;13.816;2023-02-20T18:18:06;7.97;;;5.20;;
17763;SDS011;22245;52.832;13.816;2023-02-20T18:21:28;8.57;;;4.50;;
17763;SDS011;22245;52.832;13.816;2023-02-20T18:24:50;6.83;;;4.37;;
17763;SDS011;22245;52.832;13.816;2023-02-20T18:28:12;10.57;;;4.87;;
17763;SDS011;22245;52.832;13.816;2023-02-20T18:31:34;7.90;;;4.47;;
17763;SDS011;22245;52.832;13.816;2023-02-20T18:34:57;6.90;;;4.27;;
17763;SDS011;22245;52.832;13.816;2023-02-20T18:38:19;7.40;;;5.10;;
17763;SDS011;22245;52.832;13.816;2023-02-20T18:41:46;7.47;;;4.43;;
17763;SDS011;22245;52.832;13.816;2023-02-20T18:45:09;6.77;;;4.70;;
17763;SDS011;22245;52.832;13.816;2023-02-20T18:48:30;8.13;;;4.87;;
17763;SDS011;22245;52.832;13.816;2023-02-20T18:51:53;8.00;;;5.13;;
17763;SDS011;22245;52.832;13.816;2023-02-20T18:55:16;7.07;;;4.83;;
17763;SDS011;22245;52.832;13.816;2023-02-20T18:58:38;6.30;;;4.20;;
17763;SDS011;22245;52.832;13.816;2023-02-20T19:02:00;6.33;;;4.47;;
17763;SDS011;22245;52.832;13.816;2023-02-20T19:05:25;6.23;;;4.50;;
17763;SDS011;22245;52.832;13.816;2023-02-20T19:08:48;6.30;;;4.03;;
17763;SDS011;22245;52.832;13.816;2023-02-20T19:12:09;6.50;;;4.53;;
17763;SDS011;22245;52.832;13.816;2023-02-20T19:15:31;6.47;;;4.17;;
17763;SDS011;22245;52.832;13.816;2023-02-20T19:18:53;6.60;;;3.83;;
17763;SDS011;22245;52.832;13.816;2023-02-20T19:22:15;7.20;;;4.67;;
17763;SDS011;22245;52.832;13.816;2023-02-20T19:25:38;6.33;;;4.03;;
17763;SDS011;22245;52.832;13.816;2023-02-20T19:29:02;5.67;;;3.67;;
17763;SDS011;22245;52.832;13.816;2023-02-20T19:32:24;5.80;;;3.73;;
17763;SDS011;22245;52.832;13.816;2023-02-20T19:35:45;6.87;;;3.97;;
17763;SDS011;22245;52.832;13.816;2023-02-20T19:39:07;7.50;;;3.90;;
17763;SDS011;22245;52.832;13.816;2023-02-20T19:42:31;6.80;;;3.70;;
17763;SDS011;22245;52.832;13.816;2023-02-20T19:45:53;5.03;;;3.70;;
17763;SDS011;22245;52.832;13.816;2023-02-20T19:49:15;4.80;;;3.43;;
17763;SDS011;22245;52.832;13.816;2023-02-20T19:52:37;5.80;;;3.90;;
17763;SDS011;22245;52.832;13.816;2023-02-20T19:56:01;5.20;;;3.63;;
17763;SDS011;22245;52.832;13.816;2023-02-20T19:59:24;6.10;;;3.87;;
17763;SDS011;22245;52.832;13.816;2023-02-20T20:02:46;6.33;;;4.10;;
17763;SDS011;22245;52.832;13.816;2023-02-20T20:06:09;6.00;;;4.10;;
17763;SDS011;22245;52.832;13.816;2023-02-20T20:09:31;4.53;;;3.30;;
17763;SDS011;22245;52.832;13.816;2023-02-20T20:12:56;5.23;;;3.77;;
17763;SDS011;22245;52.832;13.816;2023-02-20T20:16:19;5.27;;;3.47;;
17763;SDS011;22245;52.832;13.816;2023-02-20T20:19:41;5.30;;;3.53;;
17763;SDS011;22245;52.832;13.816;2023-02-20T20:23:17;4.90;;;3.50;;
17763;SDS011;22245;52.832;13.816;2023-02-20T20:26:39;5.00;;;3.43;;